createdAt,value
2019-01-24T00:00:48.802Z,56.06
2019-01-24T00:01:53.977Z,56.03
2019-01-24T00:02:59.025Z,56.09
2019-01-24T00:04:04.210Z,56.14
2019-01-24T00:05:09.300Z,56.16
2019-01-24T00:06:14.354Z,56.13
2019-01-24T00:07:19.823Z,56.11
2019-01-24T00:08:24.823Z,56.10
2019-01-24T00:09:30.756Z,56.09
2019-01-24T00:10:36.434Z,56.03
2019-01-24T00:11:41.505Z,56.01
2019-01-24T00:12:46.525Z,56.00
2019-01-24T00:13:51.532Z,55.97
2019-01-24T00:14:56.570Z,55.88
2019-01-24T00:16:01.822Z,55.88
2019-01-24T00:17:07.441Z,55.83
2019-01-24T00:18:12.844Z,55.86
2019-01-24T00:19:18.200Z,55.94
2019-01-24T00:20:23.599Z,55.95
2019-01-24T00:21:28.526Z,55.91
2019-01-24T00:22:33.895Z,55.96
2019-01-24T00:23:39.151Z,55.95
2019-01-24T00:24:44.195Z,55.95
2019-01-24T00:25:49.851Z,55.98
2019-01-24T00:26:54.822Z,55.98
2019-01-24T00:27:59.871Z,56.00
2019-01-24T00:29:04.976Z,55.96
2019-01-24T00:30:11.079Z,55.92
2019-01-24T00:31:16.118Z,56.00
2019-01-24T00:32:21.775Z,56.06
2019-01-24T00:33:26.804Z,56.04
2019-01-24T00:34:31.857Z,56.05
2019-01-24T00:35:39.846Z,56.07
2019-01-24T00:36:45.219Z,56.10
2019-01-24T00:37:50.206Z,56.09
2019-01-24T00:38:55.303Z,56.12
2019-01-24T00:40:00.257Z,56.09
2019-01-24T00:41:05.696Z,56.09
2019-01-24T00:42:10.808Z,56.12
2019-01-24T00:43:15.816Z,56.18
2019-01-24T00:44:20.739Z,56.20
2019-01-24T00:45:25.746Z,56.21
2019-01-24T00:46:30.764Z,56.21
2019-01-24T00:47:36.226Z,56.10
2019-01-24T00:48:41.537Z,56.06
2019-01-24T00:49:46.587Z,56.05
2019-01-24T00:50:51.526Z,56.05
2019-01-24T00:51:56.778Z,56.01
2019-01-24T00:53:02.225Z,55.98
2019-01-24T00:54:07.229Z,55.97
2019-01-24T00:55:13.887Z,56.10
2019-01-24T00:56:18.919Z,56.13
2019-01-24T00:57:24.157Z,56.13
2019-01-24T00:58:29.435Z,56.13
2019-01-24T00:59:34.485Z,56.15
2019-01-24T01:00:39.593Z,56.22
2019-01-24T01:01:44.984Z,56.22
2019-01-24T01:02:50.378Z,56.24
2019-01-24T01:03:55.785Z,56.28
2019-01-24T01:05:00.715Z,56.33
2019-01-24T01:06:07.078Z,56.34
2019-01-24T01:07:12.105Z,56.36
2019-01-24T01:08:17.535Z,56.41
2019-01-24T01:09:22.789Z,56.39
2019-01-24T01:10:28.816Z,56.38
2019-01-24T01:11:33.829Z,56.31
2019-01-24T01:12:39.275Z,56.37
2019-01-24T01:13:44.335Z,56.37
2019-01-24T01:14:49.684Z,56.35
2019-01-24T01:15:54.688Z,56.37
2019-01-24T01:17:00.230Z,56.38
2019-01-24T01:18:05.910Z,56.31
2019-01-24T01:19:11.094Z,56.21
2019-01-24T01:20:18.478Z,56.18
2019-01-24T01:21:23.875Z,56.17
2019-01-24T01:22:28.890Z,56.13
2019-01-24T01:23:33.919Z,56.09
2019-01-24T01:24:39.047Z,56.02
2019-01-24T01:25:44.136Z,55.99
2019-01-24T01:26:49.165Z,55.92
2019-01-24T01:27:54.218Z,55.93
2019-01-24T01:28:59.292Z,55.93
2019-01-24T01:30:06.254Z,55.97
2019-01-24T01:31:11.349Z,56.07
2019-01-24T01:32:16.659Z,56.12
2019-01-24T01:33:21.699Z,56.13
2019-01-24T01:34:26.744Z,56.11
2019-01-24T01:35:31.756Z,56.05
2019-01-24T01:36:36.733Z,56.04
2019-01-24T01:37:42.095Z,56.05
2019-01-24T01:38:47.032Z,56.02
2019-01-24T01:39:52.357Z,56.00
2019-01-24T01:40:57.277Z,55.94
2019-01-24T01:42:02.651Z,55.97
2019-01-24T01:43:07.753Z,55.91
2019-01-24T01:44:12.736Z,55.93
2019-01-24T01:45:19.901Z,55.94
2019-01-24T01:46:24.833Z,56.07
2019-01-24T01:47:29.772Z,56.06
2019-01-24T01:48:35.087Z,56.09
2019-01-24T01:49:40.477Z,56.08
2019-01-24T01:50:45.947Z,56.09
2019-01-24T01:51:50.923Z,56.07
2019-01-24T01:52:56.023Z,56.05
2019-01-24T01:54:00.925Z,56.02
2019-01-24T01:55:06.387Z,55.98
2019-01-24T01:56:11.402Z,55.99
2019-01-24T01:57:16.374Z,56.08
2019-01-24T01:58:21.669Z,56.16
2019-01-24T01:59:26.651Z,56.27
2019-01-24T02:00:31.714Z,56.35
2019-01-24T02:01:37.074Z,56.33
2019-01-24T02:02:42.115Z,56.28
2019-01-24T02:03:47.135Z,56.27
2019-01-24T02:04:52.138Z,56.17
2019-01-24T02:05:57.052Z,56.16
2019-01-24T02:07:02.307Z,56.21
2019-01-24T02:08:07.817Z,56.26
2019-01-24T02:09:12.881Z,56.35
2019-01-24T02:10:20.394Z,56.32
2019-01-24T02:11:25.471Z,56.26
2019-01-24T02:12:31.446Z,56.17
2019-01-24T02:13:36.735Z,56.23
2019-01-24T02:14:41.803Z,56.32
2019-01-24T02:15:47.504Z,56.33
2019-01-24T02:16:52.791Z,56.26
2019-01-24T02:17:57.797Z,56.30
2019-01-24T02:19:02.785Z,56.28
2019-01-24T02:20:10.812Z,56.22
2019-01-24T02:21:16.191Z,56.23
2019-01-24T02:22:21.379Z,56.16
2019-01-24T02:23:26.393Z,56.16
2019-01-24T02:24:31.327Z,56.12
2019-01-24T02:25:36.676Z,56.11
2019-01-24T02:26:41.775Z,56.20
2019-01-24T02:27:46.863Z,56.25
2019-01-24T02:28:51.889Z,56.28
2019-01-24T02:29:56.915Z,56.24
2019-01-24T02:31:01.981Z,56.27
2019-01-24T02:32:07.564Z,56.25
2019-01-24T02:33:12.509Z,56.27
2019-01-24T02:34:17.925Z,56.29
2019-01-24T02:35:22.997Z,56.23
2019-01-24T02:36:28.305Z,56.22
2019-01-24T02:37:33.231Z,56.20
2019-01-24T02:38:38.596Z,56.24
2019-01-24T02:39:43.571Z,56.31
2019-01-24T02:40:48.601Z,56.30
2019-01-24T02:41:53.688Z,56.27
2019-01-24T02:42:58.781Z,56.26
2019-01-24T02:44:04.198Z,56.32
2019-01-24T02:45:11.924Z,56.33
2019-01-24T02:46:17.167Z,56.35
2019-01-24T02:47:22.940Z,56.35
2019-01-24T02:48:27.849Z,56.40
2019-01-24T02:49:33.228Z,56.43
2019-01-24T02:50:38.423Z,56.41
2019-01-24T02:51:43.449Z,56.42
2019-01-24T02:52:48.923Z,56.45
2019-01-24T02:53:53.883Z,56.47
2019-01-24T02:54:59.162Z,56.49
2019-01-24T02:56:04.801Z,56.48
2019-01-24T02:57:09.935Z,56.44
2019-01-24T02:58:14.974Z,56.43
2019-01-24T02:59:20.030Z,56.45
2019-01-24T03:00:26.921Z,56.42
2019-01-24T03:01:31.860Z,56.46
2019-01-24T03:02:36.865Z,56.44
2019-01-24T03:03:42.090Z,56.37
2019-01-24T03:04:47.179Z,56.31
2019-01-24T03:05:52.079Z,56.28
2019-01-24T03:06:57.429Z,56.26
2019-01-24T03:08:02.467Z,56.28
2019-01-24T03:09:07.985Z,56.27
2019-01-24T03:10:13.870Z,56.18
2019-01-24T03:11:19.125Z,56.24
2019-01-24T03:12:24.209Z,56.22
2019-01-24T03:13:29.477Z,56.21
2019-01-24T03:14:35.249Z,56.29
2019-01-24T03:15:40.541Z,56.35
2019-01-24T03:16:45.620Z,56.32
2019-01-24T03:17:50.905Z,56.28
2019-01-24T03:18:56.507Z,56.33
2019-01-24T03:20:01.782Z,56.30
2019-01-24T03:21:06.872Z,56.25
2019-01-24T03:22:12.224Z,56.18
2019-01-24T03:23:17.551Z,56.12
2019-01-24T03:24:22.498Z,56.17
2019-01-24T03:25:27.944Z,56.20
2019-01-24T03:26:33.019Z,56.22
2019-01-24T03:27:38.172Z,56.24
2019-01-24T03:28:43.087Z,56.27
2019-01-24T03:29:49.110Z,56.25
2019-01-24T03:30:54.115Z,56.20
2019-01-24T03:31:59.480Z,56.27
2019-01-24T03:33:04.517Z,56.27
2019-01-24T03:34:09.383Z,56.29
2019-01-24T03:35:16.933Z,56.40
2019-01-24T03:36:22.018Z,56.42
2019-01-24T03:37:26.932Z,56.35
2019-01-24T03:38:31.944Z,56.35
2019-01-24T03:39:37.797Z,56.36
2019-01-24T03:40:42.895Z,56.35
2019-01-24T03:41:48.307Z,56.30
2019-01-24T03:42:53.441Z,56.27
2019-01-24T03:43:58.393Z,56.23
2019-01-24T03:45:05.062Z,56.20
2019-01-24T03:46:10.054Z,56.19
2019-01-24T03:47:15.786Z,56.17
2019-01-24T03:48:21.467Z,56.17
2019-01-24T03:49:26.390Z,56.13
2019-01-24T03:50:32.324Z,56.17
2019-01-24T03:51:37.282Z,56.18
2019-01-24T03:52:42.308Z,56.07
2019-01-24T03:53:47.305Z,56.09
2019-01-24T03:54:52.883Z,56.13
2019-01-24T03:55:58.603Z,56.11
2019-01-24T03:57:03.516Z,56.19
2019-01-24T03:58:08.850Z,56.29
2019-01-24T03:59:13.781Z,56.41
2019-01-24T04:00:21.552Z,56.41
2019-01-24T04:01:26.563Z,56.42
2019-01-24T04:02:32.237Z,56.46
2019-01-24T04:03:37.381Z,56.49
2019-01-24T04:04:42.784Z,56.54
2019-01-24T04:05:47.880Z,56.60
2019-01-24T04:06:52.902Z,56.63
2019-01-24T04:07:58.246Z,56.68
2019-01-24T04:09:05.526Z,56.76
2019-01-24T04:10:13.148Z,56.77
2019-01-24T04:11:18.456Z,56.80
2019-01-24T04:12:23.412Z,56.79
2019-01-24T04:13:28.418Z,56.74
2019-01-24T04:14:33.368Z,56.67
2019-01-24T04:15:38.437Z,56.56
2019-01-24T04:16:44.695Z,56.50
2019-01-24T04:17:49.972Z,56.47
2019-01-24T04:18:55.244Z,56.46
2019-01-24T04:20:00.280Z,56.47
2019-01-24T04:21:05.676Z,56.48
2019-01-24T04:22:11.627Z,56.47
2019-01-24T04:23:17.083Z,56.41
2019-01-24T04:24:22.009Z,56.37
2019-01-24T04:25:26.963Z,56.32
2019-01-24T04:26:32.240Z,56.29
2019-01-24T04:27:37.248Z,56.28
2019-01-24T04:28:42.533Z,56.27
2019-01-24T04:29:47.436Z,56.29
2019-01-24T04:30:53.117Z,56.33
2019-01-24T04:31:58.117Z,56.36
2019-01-24T04:33:03.436Z,56.34
2019-01-24T04:34:08.418Z,56.37
2019-01-24T04:35:19.704Z,56.37
2019-01-24T04:36:21.244Z,56.41
2019-01-24T04:37:26.223Z,56.39
2019-01-24T04:38:31.424Z,56.28
2019-01-24T04:39:36.438Z,56.28
2019-01-24T04:40:41.434Z,56.28
2019-01-24T04:41:46.391Z,56.36
2019-01-24T04:42:51.553Z,56.35
2019-01-24T04:43:56.933Z,56.35
2019-01-24T04:45:01.883Z,56.35
2019-01-24T04:46:06.884Z,56.38
2019-01-24T04:47:11.903Z,56.44
2019-01-24T04:48:16.814Z,56.45
2019-01-24T04:49:21.858Z,56.39
2019-01-24T04:50:26.864Z,56.39
2019-01-24T04:51:32.195Z,56.44
2019-01-24T04:52:37.292Z,56.53
2019-01-24T04:53:42.199Z,56.58
2019-01-24T04:54:47.121Z,56.62
2019-01-24T04:55:52.359Z,56.69
2019-01-24T04:56:57.731Z,56.71
2019-01-24T04:58:02.989Z,56.72
2019-01-24T04:59:08.519Z,56.80
2019-01-24T05:00:27.952Z,56.80
2019-01-24T05:01:32.939Z,56.81
2019-01-24T05:02:37.946Z,56.80
2019-01-24T05:03:42.877Z,56.82
2019-01-24T05:04:47.914Z,57.00
2019-01-24T05:05:52.868Z,57.01
2019-01-24T05:06:57.993Z,57.15
2019-01-24T05:08:03.309Z,57.25
2019-01-24T05:09:08.905Z,57.29
2019-01-24T05:10:14.538Z,57.36
2019-01-24T05:11:19.467Z,57.48
2019-01-24T05:12:24.382Z,57.56
2019-01-24T05:13:29.297Z,57.64
2019-01-24T05:14:34.584Z,57.69
2019-01-24T05:15:39.683Z,57.78
2019-01-24T05:16:44.654Z,57.84
2019-01-24T05:17:49.638Z,57.89
2019-01-24T05:18:55.822Z,57.99
2019-01-24T05:20:00.789Z,57.97
2019-01-24T05:21:06.463Z,57.96
2019-01-24T05:22:11.377Z,57.96
2019-01-24T05:23:16.645Z,57.92
2019-01-24T05:24:21.829Z,57.93
2019-01-24T05:25:26.893Z,57.97
2019-01-24T05:26:32.151Z,58.03
2019-01-24T05:27:37.535Z,58.00
2019-01-24T05:28:42.461Z,58.15
2019-01-24T05:29:47.393Z,58.32
2019-01-24T05:30:52.495Z,58.40
2019-01-24T05:31:57.841Z,58.46
2019-01-24T05:33:03.152Z,58.56
2019-01-24T05:34:08.841Z,58.65
2019-01-24T05:35:14.438Z,58.70
2019-01-24T05:36:19.432Z,58.80
2019-01-24T05:37:24.790Z,58.85
2019-01-24T05:38:30.058Z,58.91
2019-01-24T05:39:35.099Z,58.97
2019-01-24T05:40:40.452Z,58.98
2019-01-24T05:41:45.529Z,59.01
2019-01-24T05:42:50.526Z,59.03
2019-01-24T05:43:56.002Z,58.97
2019-01-24T05:45:01.246Z,58.94
2019-01-24T05:46:06.278Z,58.96
2019-01-24T05:47:11.613Z,58.95
2019-01-24T05:48:17.086Z,58.98
2019-01-24T05:49:22.385Z,58.96
2019-01-24T05:50:27.849Z,58.96
2019-01-24T05:51:33.146Z,58.87
2019-01-24T05:52:38.616Z,58.85
2019-01-24T05:53:43.845Z,58.88
2019-01-24T05:54:48.882Z,58.94
2019-01-24T05:55:53.811Z,58.94
2019-01-24T05:56:58.784Z,58.94
2019-01-24T05:58:03.924Z,58.96
2019-01-24T05:59:09.230Z,58.98
2019-01-24T06:00:19.952Z,59.03
2019-01-24T06:01:25.948Z,59.08
2019-01-24T06:02:30.990Z,59.06
2019-01-24T06:03:36.120Z,59.09
2019-01-24T06:04:45.423Z,59.08
2019-01-24T06:05:50.405Z,59.11
2019-01-24T06:06:55.378Z,59.08
2019-01-24T06:08:00.695Z,59.03
2019-01-24T06:09:08.027Z,58.97
2019-01-24T06:10:14.358Z,58.95
2019-01-24T06:11:19.586Z,58.92
2019-01-24T06:12:24.518Z,58.92
2019-01-24T06:13:29.866Z,58.97
2019-01-24T06:14:35.230Z,59.02
2019-01-24T06:15:40.545Z,59.03
2019-01-24T06:16:45.834Z,59.05
2019-01-24T06:17:51.189Z,59.15
2019-01-24T06:18:56.273Z,59.21
2019-01-24T06:20:01.366Z,59.22
2019-01-24T06:21:07.655Z,59.22
2019-01-24T06:22:12.716Z,59.23
2019-01-24T06:23:17.808Z,59.26
2019-01-24T06:24:22.827Z,59.25
2019-01-24T06:25:27.851Z,59.21
2019-01-24T06:26:33.224Z,59.17
2019-01-24T06:27:38.518Z,59.18
2019-01-24T06:28:43.575Z,59.22
2019-01-24T06:29:48.516Z,59.26
2019-01-24T06:30:53.590Z,59.18
2019-01-24T06:31:58.596Z,59.20
2019-01-24T06:33:04.004Z,59.28
2019-01-24T06:34:09.071Z,59.30
2019-01-24T06:35:14.278Z,59.35
2019-01-24T06:36:19.600Z,59.39
2019-01-24T06:37:24.646Z,59.43
2019-01-24T06:38:29.831Z,59.44
2019-01-24T06:39:34.733Z,59.37
2019-01-24T06:40:40.109Z,59.34
2019-01-24T06:41:45.861Z,59.24
2019-01-24T06:42:51.128Z,59.18
2019-01-24T06:43:56.146Z,59.10
2019-01-24T06:45:01.318Z,59.04
2019-01-24T06:46:06.506Z,58.94
2019-01-24T06:47:11.549Z,58.85
2019-01-24T06:48:16.765Z,58.73
2019-01-24T06:49:21.723Z,58.63
2019-01-24T06:50:27.360Z,58.53
2019-01-24T06:51:32.633Z,58.54
2019-01-24T06:52:37.745Z,58.58
2019-01-24T06:53:42.929Z,58.56
2019-01-24T06:54:48.235Z,58.68
2019-01-24T06:55:53.506Z,58.76
2019-01-24T06:56:58.904Z,58.69
2019-01-24T06:58:04.350Z,58.69
2019-01-24T06:59:09.351Z,58.73
2019-01-24T07:00:16.603Z,58.80
2019-01-24T07:01:22.083Z,58.74
2019-01-24T07:02:27.510Z,58.65
2019-01-24T07:03:32.486Z,58.68
2019-01-24T07:04:37.466Z,58.76
2019-01-24T07:05:43.221Z,58.85
2019-01-24T07:06:48.545Z,58.90
2019-01-24T07:07:53.644Z,58.99
2019-01-24T07:08:58.983Z,59.03
2019-01-24T07:10:04.627Z,59.10
2019-01-24T07:11:09.645Z,59.13
2019-01-24T07:12:15.081Z,59.19
2019-01-24T07:13:20.262Z,59.17
2019-01-24T07:14:25.547Z,59.20
2019-01-24T07:15:30.736Z,59.15
2019-01-24T07:16:35.814Z,59.27
2019-01-24T07:17:41.794Z,59.33
2019-01-24T07:18:47.024Z,59.34
2019-01-24T07:19:51.997Z,59.35
2019-01-24T07:20:57.294Z,59.36
2019-01-24T07:22:02.755Z,59.38
2019-01-24T07:23:08.652Z,59.42
2019-01-24T07:24:13.624Z,59.40
2019-01-24T07:25:23.880Z,59.29
2019-01-24T07:26:28.956Z,59.29
2019-01-24T07:27:33.979Z,59.23
2019-01-24T07:28:38.906Z,59.24
2019-01-24T07:29:44.500Z,59.25
2019-01-24T07:30:49.624Z,59.30
2019-01-24T07:31:54.597Z,59.32
2019-01-24T07:32:59.752Z,59.34
2019-01-24T07:34:05.247Z,59.27
2019-01-24T07:35:12.801Z,59.24
2019-01-24T07:36:17.869Z,59.21
2019-01-24T07:37:23.527Z,59.23
2019-01-24T07:38:28.906Z,59.26
2019-01-24T07:39:34.236Z,59.31
2019-01-24T07:40:39.523Z,59.33
2019-01-24T07:41:44.615Z,59.35
2019-01-24T07:42:51.472Z,59.41
2019-01-24T07:43:56.431Z,59.46
2019-01-24T07:45:01.425Z,59.48
2019-01-24T07:46:07.089Z,59.59
2019-01-24T07:47:12.116Z,59.60
2019-01-24T07:48:17.391Z,59.56
2019-01-24T07:49:22.401Z,59.59
2019-01-24T07:50:27.676Z,59.46
2019-01-24T07:51:32.954Z,59.33
2019-01-24T07:52:38.423Z,59.16
2019-01-24T07:53:43.432Z,59.07
2019-01-24T07:54:48.786Z,59.07
2019-01-24T07:55:54.600Z,59.12
2019-01-24T07:56:59.982Z,59.24
2019-01-24T07:58:06.842Z,59.34
2019-01-24T07:59:11.938Z,59.47
2019-01-24T08:00:19.999Z,59.57
2019-01-24T08:01:24.990Z,59.59
2019-01-24T08:02:29.975Z,59.63
2019-01-24T08:03:35.043Z,59.70
2019-01-24T08:04:40.007Z,59.71
2019-01-24T08:05:45.066Z,59.79
2019-01-24T08:06:50.083Z,59.74
2019-01-24T08:07:55.227Z,59.82
2019-01-24T08:09:00.319Z,59.84
2019-01-24T08:10:06.782Z,59.84
2019-01-24T08:11:12.115Z,59.91
2019-01-24T08:12:17.046Z,59.94
2019-01-24T08:13:22.110Z,59.78
2019-01-24T08:14:27.251Z,59.76
2019-01-24T08:15:32.555Z,59.74
2019-01-24T08:16:37.464Z,59.65
2019-01-24T08:17:42.680Z,59.65
2019-01-24T08:18:47.669Z,59.52
2019-01-24T08:19:52.964Z,59.52
2019-01-24T08:20:58.093Z,59.46
2019-01-24T08:22:03.319Z,59.51
2019-01-24T08:23:08.593Z,59.49
2019-01-24T08:24:13.577Z,59.46
2019-01-24T08:25:19.749Z,59.49
2019-01-24T08:26:24.949Z,59.60
2019-01-24T08:27:30.124Z,59.64
2019-01-24T08:28:36.109Z,59.70
2019-01-24T08:29:41.256Z,59.77
2019-01-24T08:30:47.827Z,59.80
2019-01-24T08:31:52.785Z,59.81
2019-01-24T08:32:58.169Z,59.82
2019-01-24T08:34:03.557Z,59.81
2019-01-24T08:35:09.062Z,59.82
2019-01-24T08:36:15.617Z,59.84
2019-01-24T08:37:20.835Z,59.77
2019-01-24T08:38:26.161Z,59.67
2019-01-24T08:39:31.798Z,59.62
2019-01-24T08:40:37.736Z,59.62
2019-01-24T08:41:43.587Z,59.60
2019-01-24T08:42:48.711Z,59.59
2019-01-24T08:43:53.653Z,59.61
2019-01-24T08:44:58.676Z,59.66
2019-01-24T08:46:03.652Z,59.60
2019-01-24T08:47:09.003Z,59.61
2019-01-24T08:48:14.295Z,59.63
2019-01-24T08:49:19.368Z,59.67
2019-01-24T08:50:25.005Z,59.73
2019-01-24T08:51:30.035Z,59.75
2019-01-24T08:52:35.057Z,59.83
2019-01-24T08:53:40.063Z,59.89
2019-01-24T08:54:45.164Z,59.85
2019-01-24T08:55:50.078Z,59.85
2019-01-24T08:56:54.989Z,59.90
2019-01-24T08:58:00.469Z,59.95
2019-01-24T08:59:05.860Z,60.07
2019-01-24T09:00:13.771Z,60.15
2019-01-24T09:01:18.763Z,60.19
2019-01-24T09:02:23.883Z,60.22
2019-01-24T09:03:28.971Z,60.19
2019-01-24T09:04:34.249Z,60.17
2019-01-24T09:05:39.561Z,60.19
2019-01-24T09:06:44.566Z,60.17
2019-01-24T09:07:49.725Z,60.11
2019-01-24T09:08:55.128Z,60.05
2019-01-24T09:10:00.092Z,60.02
2019-01-24T09:11:05.386Z,60.01
2019-01-24T09:12:10.415Z,59.90
2019-01-24T09:13:15.732Z,59.80
2019-01-24T09:14:20.810Z,59.75
2019-01-24T09:15:26.187Z,59.78
2019-01-24T09:16:31.403Z,59.77
2019-01-24T09:17:36.679Z,59.82
2019-01-24T09:18:41.702Z,59.84
2019-01-24T09:19:47.920Z,59.88
2019-01-24T09:20:53.706Z,59.88
2019-01-24T09:21:58.994Z,59.85
2019-01-24T09:23:05.084Z,59.79
2019-01-24T09:24:10.221Z,59.72
2019-01-24T09:25:15.811Z,59.59
2019-01-24T09:26:20.757Z,59.46
2019-01-24T09:27:26.993Z,59.37
2019-01-24T09:28:32.285Z,59.34
2019-01-24T09:29:39.241Z,59.25
2019-01-24T09:30:44.550Z,59.15
2019-01-24T09:31:49.595Z,59.05
2019-01-24T09:32:54.933Z,58.95
2019-01-24T09:34:00.179Z,58.83
2019-01-24T09:35:06.724Z,58.77
2019-01-24T09:36:11.762Z,58.78
2019-01-24T09:37:16.823Z,58.81
2019-01-24T09:38:21.879Z,58.79
2019-01-24T09:39:27.055Z,58.71
2019-01-24T09:40:32.222Z,58.64
2019-01-24T09:41:38.450Z,58.54
2019-01-24T09:42:43.518Z,58.52
2019-01-24T09:43:48.568Z,58.50
2019-01-24T09:44:53.549Z,58.47
2019-01-24T09:45:58.511Z,58.41
2019-01-24T09:47:03.575Z,58.42
2019-01-24T09:48:09.262Z,58.54
2019-01-24T09:49:14.623Z,58.55
2019-01-24T09:50:21.478Z,58.58
2019-01-24T09:51:26.890Z,58.92
2019-01-24T09:52:32.136Z,59.07
2019-01-24T09:53:37.122Z,59.13
2019-01-24T09:54:42.395Z,59.27
2019-01-24T09:55:47.461Z,59.49
2019-01-24T09:56:55.338Z,59.66
2019-01-24T09:58:00.407Z,59.81
2019-01-24T09:59:05.571Z,59.96
2019-01-24T10:00:17.077Z,59.96
2019-01-24T10:01:22.002Z,59.89
2019-01-24T10:02:27.082Z,59.83
2019-01-24T10:03:32.104Z,59.88
2019-01-24T10:04:37.416Z,59.95
2019-01-24T10:05:42.509Z,60.09
2019-01-24T10:06:47.475Z,60.16
2019-01-24T10:07:52.919Z,60.18
2019-01-24T10:08:58.381Z,60.10
2019-01-24T10:10:04.398Z,60.16
2019-01-24T10:11:09.434Z,60.28
2019-01-24T10:12:14.639Z,60.35
2019-01-24T10:13:19.733Z,60.24
2019-01-24T10:14:25.009Z,60.21
2019-01-24T10:15:30.251Z,60.11
2019-01-24T10:16:35.249Z,60.13
2019-01-24T10:17:40.418Z,60.11
2019-01-24T10:18:45.880Z,60.01
2019-01-24T10:19:50.852Z,59.93
2019-01-24T10:20:55.909Z,59.91
2019-01-24T10:22:00.931Z,59.83
2019-01-24T10:23:06.012Z,59.83
2019-01-24T10:24:10.990Z,59.70
2019-01-24T10:25:18.717Z,59.57
2019-01-24T10:26:23.666Z,59.38
2019-01-24T10:27:29.307Z,59.33
2019-01-24T10:28:34.362Z,59.40
2019-01-24T10:29:40.313Z,59.50
2019-01-24T10:30:45.249Z,59.59
2019-01-24T10:31:50.196Z,59.60
2019-01-24T10:32:55.852Z,59.51
2019-01-24T10:34:00.936Z,59.47
2019-01-24T10:35:06.222Z,59.34
2019-01-24T10:36:11.163Z,59.40
2019-01-24T10:37:17.520Z,59.38
2019-01-24T10:38:22.914Z,59.33
2019-01-24T10:39:28.067Z,59.27
2019-01-24T10:40:33.755Z,59.13
2019-01-24T10:41:38.919Z,59.13
2019-01-24T10:42:44.489Z,59.15
2019-01-24T10:43:49.491Z,59.14
2019-01-24T10:44:54.846Z,59.09
2019-01-24T10:46:00.541Z,58.98
2019-01-24T10:47:05.703Z,58.98
2019-01-24T10:48:10.798Z,58.95
2019-01-24T10:49:15.751Z,58.95
2019-01-24T10:50:22.607Z,58.94
2019-01-24T10:51:27.549Z,58.90
2019-01-24T10:52:32.485Z,58.94
2019-01-24T10:53:37.779Z,58.93
2019-01-24T10:54:43.038Z,58.92
2019-01-24T10:55:48.166Z,58.92
2019-01-24T10:56:53.059Z,58.87
2019-01-24T10:58:00.737Z,58.71
2019-01-24T10:59:05.945Z,58.62
2019-01-24T11:00:14.724Z,58.58
2019-01-24T11:01:20.089Z,58.53
2019-01-24T11:02:25.078Z,58.39
2019-01-24T11:03:30.371Z,58.20
2019-01-24T11:04:35.388Z,58.25
2019-01-24T11:05:40.485Z,58.13
2019-01-24T11:06:50.045Z,58.09
2019-01-24T11:07:52.669Z,58.07
2019-01-24T11:08:57.850Z,58.10
2019-01-24T11:10:03.463Z,58.12
2019-01-24T11:11:08.918Z,58.20
2019-01-24T11:12:14.168Z,58.20
2019-01-24T11:13:19.195Z,58.29
2019-01-24T11:14:24.420Z,58.28
2019-01-24T11:15:29.550Z,58.19
2019-01-24T11:16:34.501Z,58.17
2019-01-24T11:17:40.158Z,58.20
2019-01-24T11:18:45.544Z,58.20
2019-01-24T11:19:50.487Z,58.17
2019-01-24T11:20:56.510Z,58.11
2019-01-24T11:22:01.857Z,58.07
2019-01-24T11:23:07.141Z,58.09
2019-01-24T11:24:12.081Z,58.07
2019-01-24T11:25:19.115Z,58.12
2019-01-24T11:26:24.485Z,58.10
2019-01-24T11:27:29.564Z,58.19
2019-01-24T11:28:34.573Z,58.19
2019-01-24T11:29:39.693Z,58.14
2019-01-24T11:30:44.884Z,58.20
2019-01-24T11:31:50.840Z,58.25
2019-01-24T11:32:56.247Z,58.25
2019-01-24T11:34:01.294Z,58.27
2019-01-24T11:35:08.848Z,58.32
2019-01-24T11:36:13.968Z,58.24
2019-01-24T11:37:18.974Z,58.27
2019-01-24T11:38:24.273Z,58.21
2019-01-24T11:39:29.352Z,58.29
2019-01-24T11:40:34.448Z,58.27
2019-01-24T11:41:40.390Z,58.27
2019-01-24T11:42:45.614Z,58.20
2019-01-24T11:43:50.610Z,58.04
2019-01-24T11:44:55.690Z,58.01
2019-01-24T11:46:00.839Z,57.95
2019-01-24T11:47:05.958Z,57.93
2019-01-24T11:48:11.066Z,57.86
2019-01-24T11:49:16.069Z,57.66
2019-01-24T11:50:21.491Z,57.70
2019-01-24T11:51:26.733Z,57.73
2019-01-24T11:52:32.053Z,57.73
2019-01-24T11:53:37.085Z,57.73
2019-01-24T11:54:42.499Z,57.69
2019-01-24T11:55:47.855Z,57.75
2019-01-24T11:56:53.171Z,57.80
2019-01-24T11:57:58.231Z,57.95
2019-01-24T11:59:03.279Z,58.04
2019-01-24T12:00:16.871Z,58.08
2019-01-24T12:01:21.825Z,57.99
2019-01-24T12:02:27.020Z,57.87
2019-01-24T12:03:32.049Z,57.71
2019-01-24T12:04:37.019Z,57.61
2019-01-24T12:05:42.104Z,57.71
2019-01-24T12:06:47.385Z,57.88
2019-01-24T12:07:52.492Z,57.95
2019-01-24T12:08:57.549Z,57.92
2019-01-24T12:10:02.914Z,57.88
2019-01-24T12:11:08.229Z,57.79
2019-01-24T12:12:13.496Z,57.65
2019-01-24T12:13:18.873Z,57.44
2019-01-24T12:14:23.816Z,57.30
2019-01-24T12:15:28.990Z,57.09
2019-01-24T12:16:34.364Z,56.93
2019-01-24T12:17:39.696Z,56.93
2019-01-24T12:18:45.266Z,57.04
2019-01-24T12:19:50.310Z,57.05
2019-01-24T12:20:56.107Z,57.02
2019-01-24T12:22:02.672Z,56.99
2019-01-24T12:23:08.775Z,57.01
2019-01-24T12:24:14.074Z,56.99
2019-01-24T12:25:19.621Z,57.01
2019-01-24T12:26:25.141Z,57.11
2019-01-24T12:27:30.601Z,57.17
2019-01-24T12:28:36.842Z,57.17
2019-01-24T12:29:42.518Z,57.29
2019-01-24T12:30:49.215Z,57.33
2019-01-24T12:31:55.678Z,57.33
2019-01-24T12:33:02.011Z,57.31
2019-01-24T12:34:08.498Z,57.26
2019-01-24T12:35:14.147Z,57.20
2019-01-24T12:36:19.882Z,57.12
2019-01-24T12:37:27.271Z,57.18
2019-01-24T12:38:35.223Z,57.26
2019-01-24T12:39:40.386Z,57.29
2019-01-24T12:40:46.223Z,57.24
2019-01-24T12:41:52.038Z,57.27
2019-01-24T12:42:58.214Z,57.21
2019-01-24T12:44:03.987Z,57.14
2019-01-24T12:45:13.327Z,56.93
2019-01-24T12:46:18.655Z,56.78
2019-01-24T12:47:28.276Z,56.64
2019-01-24T12:48:36.036Z,56.41
2019-01-24T12:49:42.434Z,56.33
2019-01-24T12:50:47.742Z,56.39
2019-01-24T12:51:53.316Z,56.48
2019-01-24T12:52:59.795Z,56.64
2019-01-24T12:54:06.137Z,56.60
2019-01-24T12:55:12.214Z,56.56
2019-01-24T12:56:17.938Z,56.50
2019-01-24T12:57:23.298Z,56.57
2019-01-24T12:58:30.167Z,56.65
2019-01-24T12:59:37.171Z,56.71
2019-01-24T13:00:42.844Z,56.79
2019-01-24T13:01:48.198Z,56.86
2019-01-24T13:02:54.257Z,56.84
2019-01-24T13:03:59.603Z,56.85
2019-01-24T13:05:08.602Z,56.85
2019-01-24T13:06:13.986Z,56.92
2019-01-24T13:07:19.982Z,56.83
2019-01-24T13:08:25.286Z,56.86
2019-01-24T13:09:31.046Z,56.93
2019-01-24T13:10:38.121Z,56.98
2019-01-24T13:11:43.408Z,56.96
2019-01-24T13:12:49.774Z,56.92
2019-01-24T13:13:55.690Z,56.78
2019-01-24T13:15:01.414Z,56.79
2019-01-24T13:16:06.771Z,56.85
2019-01-24T13:17:12.068Z,56.82
2019-01-24T13:18:17.562Z,56.73
2019-01-24T13:19:23.383Z,56.75
2019-01-24T13:20:29.093Z,56.77
2019-01-24T13:21:35.956Z,56.70
2019-01-24T13:22:41.862Z,56.74
2019-01-24T13:23:47.771Z,56.60
2019-01-24T13:24:53.195Z,56.68
2019-01-24T13:25:59.085Z,56.62
2019-01-24T13:27:04.822Z,56.70
2019-01-24T13:28:10.177Z,56.68
2019-01-24T13:29:15.478Z,56.80
2019-01-24T13:30:23.029Z,56.72
2019-01-24T13:31:28.680Z,56.72
2019-01-24T13:32:34.550Z,56.78
2019-01-24T13:33:40.072Z,56.69
2019-01-24T13:34:45.450Z,56.64
2019-01-24T13:35:50.878Z,56.62
2019-01-24T13:36:57.186Z,56.62
2019-01-24T13:38:03.311Z,56.54
2019-01-24T13:39:11.033Z,56.54
2019-01-24T13:40:18.758Z,56.58
2019-01-24T13:41:24.349Z,56.67
2019-01-24T13:42:29.647Z,56.69
2019-01-24T13:43:34.676Z,56.58
2019-01-24T13:44:39.774Z,56.56
2019-01-24T13:45:45.117Z,56.53
2019-01-24T13:46:50.145Z,56.50
2019-01-24T13:47:55.274Z,56.49
2019-01-24T13:49:00.744Z,56.44
2019-01-24T13:50:07.138Z,56.47
2019-01-24T13:51:12.325Z,56.48
2019-01-24T13:52:18.050Z,56.48
2019-01-24T13:53:22.986Z,56.64
2019-01-24T13:54:28.455Z,56.67
2019-01-24T13:55:33.545Z,56.69
2019-01-24T13:56:38.900Z,56.70
2019-01-24T13:57:44.154Z,56.79
2019-01-24T13:58:49.577Z,56.80
2019-01-24T13:59:54.762Z,56.82
2019-01-24T14:00:59.873Z,56.93
2019-01-24T14:02:05.245Z,56.96
2019-01-24T14:03:51.571Z,56.96